sensor_id;sensor_type;location;lat;lon;timestamp;P1;durP1;ratioP1;P2;durP2;ratioP2
7108;SDS011;29079;41.930;25.558;2023-12-14T00:02:31;73.95;;;36.58;;
7108;SDS011;29079;41.930;25.558;2023-12-14T00:05:21;81.22;;;37.03;;
7108;SDS011;29079;41.930;25.558;2023-12-14T00:08:09;77.45;;;36.10;;
7108;SDS011;29079;41.930;25.558;2023-12-14T00:10:57;80.65;;;38.88;;
7108;SDS011;29079;41.930;25.558;2023-12-14T00:13:51;74.53;;;40.30;;
7108;SDS011;29079;41.930;25.558;2023-12-14T00:16:39;85.18;;;41.03;;
7108;SDS011;29079;41.930;25.558;2023-12-14T00:19:27;83.47;;;42.15;;
7108;SDS011;29079;41.930;25.558;2023-12-14T00:22:17;85.13;;;41.63;;
7108;SDS011;29079;41.930;25.558;2023-12-14T00:25:05;85.10;;;42.85;;
7108;SDS011;29079;41.930;25.558;2023-12-14T00:27:53;106.32;;;44.45;;
7108;SDS011;29079;41.930;25.558;2023-12-14T00:30:41;97.45;;;45.92;;
7108;SDS011;29079;41.930;25.558;2023-12-14T00:33:30;92.15;;;43.92;;
7108;SDS011;29079;41.930;25.558;2023-12-14T00:36:18;83.35;;;41.38;;
7108;SDS011;29079;41.930;25.558;2023-12-14T00:39:08;92.43;;;43.65;;
7108;SDS011;29079;41.930;25.558;2023-12-14T00:41:56;89.47;;;44.33;;
7108;SDS011;29079;41.930;25.558;2023-12-14T00:44:44;93.10;;;45.58;;
7108;SDS011;29079;41.930;25.558;2023-12-14T00:47:32;83.78;;;40.50;;
7108;SDS011;29079;41.930;25.558;2023-12-14T00:50:20;90.60;;;41.97;;
7108;SDS011;29079;41.930;25.558;2023-12-14T00:53:09;80.13;;;39.55;;
7108;SDS011;29079;41.930;25.558;2023-12-14T00:55:58;84.70;;;41.53;;
7108;SDS011;29079;41.930;25.558;2023-12-14T00:58:46;81.68;;;39.33;;
7108;SDS011;29079;41.930;25.558;2023-12-14T01:01:34;80.18;;;39.55;;
7108;SDS011;29079;41.930;25.558;2023-12-14T01:04:23;82.88;;;38.78;;
7108;SDS011;29079;41.930;25.558;2023-12-14T01:07:11;88.05;;;44.60;;
7108;SDS011;29079;41.930;25.558;2023-12-14T01:09:59;90.07;;;40.67;;
7108;SDS011;29079;41.930;25.558;2023-12-14T01:12:48;80.85;;;42.20;;
7108;SDS011;29079;41.930;25.558;2023-12-14T01:15:37;93.07;;;44.10;;
7108;SDS011;29079;41.930;25.558;2023-12-14T01:18:24;92.47;;;42.13;;
7108;SDS011;29079;41.930;25.558;2023-12-14T01:21:13;85.88;;;44.20;;
7108;SDS011;29079;41.930;25.558;2023-12-14T01:24:01;75.78;;;35.78;;
7108;SDS011;29079;41.930;25.558;2023-12-14T01:26:49;83.55;;;34.63;;
7108;SDS011;29079;41.930;25.558;2023-12-14T01:29:38;72.70;;;33.47;;
7108;SDS011;29079;41.930;25.558;2023-12-14T01:32:26;73.30;;;34.33;;
7108;SDS011;29079;41.930;25.558;2023-12-14T01:35:15;65.00;;;32.65;;
7108;SDS011;29079;41.930;25.558;2023-12-14T01:38:03;61.40;;;29.60;;
7108;SDS011;29079;41.930;25.558;2023-12-14T01:40:51;61.17;;;29.52;;
7108;SDS011;29079;41.930;25.558;2023-12-14T01:43:42;70.10;;;35.65;;
7108;SDS011;29079;41.930;25.558;2023-12-14T01:46:32;86.70;;;38.92;;
7108;SDS011;29079;41.930;25.558;2023-12-14T01:49:20;78.40;;;37.65;;
7108;SDS011;29079;41.930;25.558;2023-12-14T01:52:09;76.05;;;38.20;;
7108;SDS011;29079;41.930;25.558;2023-12-14T01:54:57;81.75;;;40.35;;
7108;SDS011;29079;41.930;25.558;2023-12-14T01:57:45;75.78;;;39.85;;
7108;SDS011;29079;41.930;25.558;2023-12-14T02:00:35;79.10;;;36.45;;
7108;SDS011;29079;41.930;25.558;2023-12-14T02:03:28;79.13;;;37.95;;
7108;SDS011;29079;41.930;25.558;2023-12-14T02:06:16;75.45;;;37.50;;
7108;SDS011;29079;41.930;25.558;2023-12-14T02:09:04;71.00;;;35.22;;
7108;SDS011;29079;41.930;25.558;2023-12-14T02:11:52;81.30;;;39.08;;
7108;SDS011;29079;41.930;25.558;2023-12-14T02:14:40;76.70;;;36.58;;
7108;SDS011;29079;41.930;25.558;2023-12-14T02:17:28;74.70;;;35.47;;
7108;SDS011;29079;41.930;25.558;2023-12-14T02:20:18;64.95;;;33.05;;
7108;SDS011;29079;41.930;25.558;2023-12-14T02:23:07;68.55;;;33.28;;
7108;SDS011;29079;41.930;25.558;2023-12-14T02:25:55;71.68;;;35.03;;
7108;SDS011;29079;41.930;25.558;2023-12-14T02:28:44;76.22;;;35.55;;
7108;SDS011;29079;41.930;25.558;2023-12-14T02:31:32;70.38;;;35.17;;
7108;SDS011;29079;41.930;25.558;2023-12-14T02:34:20;91.18;;;37.20;;
7108;SDS011;29079;41.930;25.558;2023-12-14T02:37:08;71.45;;;36.47;;
7108;SDS011;29079;41.930;25.558;2023-12-14T02:39:58;76.43;;;36.90;;
7108;SDS011;29079;41.930;25.558;2023-12-14T02:42:47;75.22;;;36.92;;
7108;SDS011;29079;41.930;25.558;2023-12-14T02:45:34;79.53;;;35.95;;
7108;SDS011;29079;41.930;25.558;2023-12-14T02:48:22;69.70;;;34.88;;
7108;SDS011;29079;41.930;25.558;2023-12-14T02:51:14;67.93;;;32.60;;
7108;SDS011;29079;41.930;25.558;2023-12-14T02:54:02;70.97;;;35.05;;
7108;SDS011;29079;41.930;25.558;2023-12-14T02:56:52;63.47;;;32.50;;
7108;SDS011;29079;41.930;25.558;2023-12-14T02:59:40;73.80;;;36.63;;
7108;SDS011;29079;41.930;25.558;2023-12-14T03:02:28;67.20;;;34.17;;
7108;SDS011;29079;41.930;25.558;2023-12-14T03:05:16;64.38;;;32.80;;
7108;SDS011;29079;41.930;25.558;2023-12-14T03:08:04;71.68;;;34.30;;
7108;SDS011;29079;41.930;25.558;2023-12-14T03:10:52;64.95;;;32.47;;
7108;SDS011;29079;41.930;25.558;2023-12-14T03:13:42;72.53;;;36.28;;
7108;SDS011;29079;41.930;25.558;2023-12-14T03:16:30;67.72;;;34.10;;
7108;SDS011;29079;41.930;25.558;2023-12-14T03:19:18;67.35;;;34.15;;
7108;SDS011;29079;41.930;25.558;2023-12-14T03:22:06;69.28;;;35.05;;
7108;SDS011;29079;41.930;25.558;2023-12-14T03:24:54;72.65;;;34.28;;
7108;SDS011;29079;41.930;25.558;2023-12-14T03:27:42;73.70;;;35.90;;
7108;SDS011;29079;41.930;25.558;2023-12-14T03:30:32;73.50;;;37.30;;
7108;SDS011;29079;41.930;25.558;2023-12-14T03:33:20;84.68;;;37.30;;
7108;SDS011;29079;41.930;25.558;2023-12-14T03:36:08;78.88;;;40.20;;
7108;SDS011;29079;41.930;25.558;2023-12-14T03:38:56;83.30;;;38.55;;
7108;SDS011;29079;41.930;25.558;2023-12-14T03:41:44;72.70;;;35.42;;
7108;SDS011;29079;41.930;25.558;2023-12-14T03:44:32;65.10;;;34.17;;
7108;SDS011;29079;41.930;25.558;2023-12-14T03:47:22;67.80;;;33.20;;
7108;SDS011;29079;41.930;25.558;2023-12-14T03:50:10;70.20;;;34.70;;
7108;SDS011;29079;41.930;25.558;2023-12-14T03:53:00;70.03;;;33.05;;
7108;SDS011;29079;41.930;25.558;2023-12-14T03:55:48;65.75;;;32.90;;
7108;SDS011;29079;41.930;25.558;2023-12-14T03:58:36;64.22;;;33.10;;
7108;SDS011;29079;41.930;25.558;2023-12-14T04:01:24;63.28;;;31.48;;
7108;SDS011;29079;41.930;25.558;2023-12-14T04:04:13;68.30;;;33.38;;
7108;SDS011;29079;41.930;25.558;2023-12-14T04:07:01;61.40;;;30.38;;
7108;SDS011;29079;41.930;25.558;2023-12-14T04:09:49;69.82;;;34.17;;
7108;SDS011;29079;41.930;25.558;2023-12-14T04:12:37;67.47;;;33.97;;
7108;SDS011;29079;41.930;25.558;2023-12-14T04:15:26;64.40;;;32.33;;
7108;SDS011;29079;41.930;25.558;2023-12-14T04:18:14;66.78;;;34.47;;
7108;SDS011;29079;41.930;25.558;2023-12-14T04:21:04;71.55;;;34.80;;
7108;SDS011;29079;41.930;25.558;2023-12-14T04:23:52;76.88;;;35.63;;
7108;SDS011;29079;41.930;25.558;2023-12-14T04:26:40;63.28;;;33.40;;
7108;SDS011;29079;41.930;25.558;2023-12-14T04:29:28;76.07;;;40.05;;
7108;SDS011;29079;41.930;25.558;2023-12-14T04:32:17;67.15;;;38.03;;
7108;SDS011;29079;41.930;25.558;2023-12-14T04:35:05;70.82;;;37.50;;
7108;SDS011;29079;41.930;25.558;2023-12-14T04:37:56;71.05;;;38.22;;
7108;SDS011;29079;41.930;25.558;2023-12-14T04:40:44;69.32;;;36.95;;
7108;SDS011;29079;41.930;25.558;2023-12-14T04:43:32;72.20;;;40.13;;
7108;SDS011;29079;41.930;25.558;2023-12-14T04:46:20;65.57;;;34.33;;
7108;SDS011;29079;41.930;25.558;2023-12-14T04:49:09;63.60;;;31.85;;
7108;SDS011;29079;41.930;25.558;2023-12-14T04:51:57;64.85;;;32.50;;
7108;SDS011;29079;41.930;25.558;2023-12-14T04:54:47;66.03;;;32.47;;
7108;SDS011;29079;41.930;25.558;2023-12-14T04:57:35;74.65;;;39.63;;
7108;SDS011;29079;41.930;25.558;2023-12-14T05:00:23;75.70;;;38.65;;
7108;SDS011;29079;41.930;25.558;2023-12-14T05:03:11;90.85;;;44.30;;
7108;SDS011;29079;41.930;25.558;2023-12-14T05:06:04;78.53;;;40.30;;
7108;SDS011;29079;41.930;25.558;2023-12-14T05:08:53;70.78;;;36.28;;
7108;SDS011;29079;41.930;25.558;2023-12-14T05:11:43;72.03;;;36.75;;
7108;SDS011;29079;41.930;25.558;2023-12-14T05:14:31;77.95;;;36.58;;
7108;SDS011;29079;41.930;25.558;2023-12-14T05:17:19;87.70;;;42.90;;
7108;SDS011;29079;41.930;25.558;2023-12-14T05:20:08;92.93;;;44.67;;
7108;SDS011;29079;41.930;25.558;2023-12-14T05:22:57;95.60;;;47.40;;
7108;SDS011;29079;41.930;25.558;2023-12-14T05:25:45;93.07;;;42.40;;
7108;SDS011;29079;41.930;25.558;2023-12-14T05:28:35;95.97;;;45.35;;
7108;SDS011;29079;41.930;25.558;2023-12-14T05:31:23;93.72;;;44.67;;
7108;SDS011;29079;41.930;25.558;2023-12-14T05:34:12;101.28;;;49.33;;
7108;SDS011;29079;41.930;25.558;2023-12-14T05:37:00;115.25;;;58.13;;
7108;SDS011;29079;41.930;25.558;2023-12-14T05:39:48;105.30;;;52.88;;
7108;SDS011;29079;41.930;25.558;2023-12-14T05:42:36;107.75;;;50.67;;
7108;SDS011;29079;41.930;25.558;2023-12-14T05:45:26;101.78;;;49.75;;
7108;SDS011;29079;41.930;25.558;2023-12-14T05:48:16;101.95;;;52.97;;
7108;SDS011;29079;41.930;25.558;2023-12-14T05:51:04;110.00;;;51.67;;
7108;SDS011;29079;41.930;25.558;2023-12-14T05:53:53;98.38;;;47.72;;
7108;SDS011;29079;41.930;25.558;2023-12-14T05:56:40;84.65;;;47.10;;
7108;SDS011;29079;41.930;25.558;2023-12-14T05:59:29;99.53;;;51.28;;
7108;SDS011;29079;41.930;25.558;2023-12-14T06:02:18;114.80;;;53.28;;
7108;SDS011;29079;41.930;25.558;2023-12-14T06:05:07;102.70;;;48.65;;
7108;SDS011;29079;41.930;25.558;2023-12-14T06:07:55;111.70;;;48.33;;
7108;SDS011;29079;41.930;25.558;2023-12-14T06:10:43;91.90;;;45.03;;
7108;SDS011;29079;41.930;25.558;2023-12-14T06:13:32;152.50;;;65.57;;
7108;SDS011;29079;41.930;25.558;2023-12-14T06:16:20;112.25;;;52.40;;
7108;SDS011;29079;41.930;25.558;2023-12-14T06:19:10;96.63;;;51.85;;
7108;SDS011;29079;41.930;25.558;2023-12-14T06:21:58;111.43;;;55.72;;
7108;SDS011;29079;41.930;25.558;2023-12-14T06:24:46;113.28;;;57.53;;
7108;SDS011;29079;41.930;25.558;2023-12-14T06:27:34;113.75;;;57.25;;
7108;SDS011;29079;41.930;25.558;2023-12-14T06:30:22;109.35;;;54.35;;
7108;SDS011;29079;41.930;25.558;2023-12-14T06:33:11;106.18;;;55.30;;
7108;SDS011;29079;41.930;25.558;2023-12-14T06:36:04;120.53;;;64.28;;
7108;SDS011;29079;41.930;25.558;2023-12-14T06:38:53;123.35;;;62.60;;
7108;SDS011;29079;41.930;25.558;2023-12-14T06:41:41;96.00;;;50.38;;
7108;SDS011;29079;41.930;25.558;2023-12-14T06:44:29;128.18;;;63.40;;
7108;SDS011;29079;41.930;25.558;2023-12-14T06:47:20;140.77;;;69.85;;
7108;SDS011;29079;41.930;25.558;2023-12-14T06:50:09;127.00;;;62.83;;
7108;SDS011;29079;41.930;25.558;2023-12-14T06:52:59;113.70;;;60.90;;
7108;SDS011;29079;41.930;25.558;2023-12-14T06:55:47;116.20;;;61.85;;
7108;SDS011;29079;41.930;25.558;2023-12-14T06:58:35;113.75;;;59.58;;
7108;SDS011;29079;41.930;25.558;2023-12-14T07:01:23;103.32;;;51.13;;
7108;SDS011;29079;41.930;25.558;2023-12-14T07:04:11;104.50;;;50.28;;
7108;SDS011;29079;41.930;25.558;2023-12-14T07:07:02;112.13;;;53.90;;
7108;SDS011;29079;41.930;25.558;2023-12-14T07:09:52;97.88;;;48.22;;
7108;SDS011;29079;41.930;25.558;2023-12-14T07:12:40;123.88;;;58.40;;
7108;SDS011;29079;41.930;25.558;2023-12-14T07:15:28;108.78;;;53.78;;
7108;SDS011;29079;41.930;25.558;2023-12-14T07:18:16;103.07;;;51.45;;
7108;SDS011;29079;41.930;25.558;2023-12-14T07:21:04;107.30;;;52.75;;
7108;SDS011;29079;41.930;25.558;2023-12-14T07:23:53;106.03;;;50.72;;
7108;SDS011;29079;41.930;25.558;2023-12-14T07:26:42;112.80;;;55.83;;
7108;SDS011;29079;41.930;25.558;2023-12-14T07:29:30;112.20;;;55.78;;
7108;SDS011;29079;41.930;25.558;2023-12-14T07:32:18;96.95;;;49.38;;
7108;SDS011;29079;41.930;25.558;2023-12-14T07:35:07;119.68;;;58.40;;
7108;SDS011;29079;41.930;25.558;2023-12-14T07:37:56;115.20;;;60.10;;
7108;SDS011;29079;41.930;25.558;2023-12-14T07:40:45;117.95;;;61.83;;
7108;SDS011;29079;41.930;25.558;2023-12-14T07:43:34;117.53;;;52.28;;
7108;SDS011;29079;41.930;25.558;2023-12-14T07:46:23;112.03;;;56.45;;
7108;SDS011;29079;41.930;25.558;2023-12-14T07:49:10;135.82;;;62.35;;
7108;SDS011;29079;41.930;25.558;2023-12-14T07:51:59;126.78;;;62.38;;
7108;SDS011;29079;41.930;25.558;2023-12-14T07:54:47;150.15;;;62.20;;
7108;SDS011;29079;41.930;25.558;2023-12-14T07:57:35;124.07;;;59.42;;
7108;SDS011;29079;41.930;25.558;2023-12-14T08:00:24;130.18;;;59.10;;
7108;SDS011;29079;41.930;25.558;2023-12-14T08:03:12;97.15;;;48.92;;
7108;SDS011;29079;41.930;25.558;2023-12-14T08:06:00;98.32;;;51.80;;
7108;SDS011;29079;41.930;25.558;2023-12-14T08:08:48;109.13;;;57.50;;
7108;SDS011;29079;41.930;25.558;2023-12-14T08:11:37;154.25;;;77.07;;
7108;SDS011;29079;41.930;25.558;2023-12-14T08:14:25;170.13;;;83.72;;
7108;SDS011;29079;41.930;25.558;2023-12-14T08:17:14;187.35;;;93.00;;
7108;SDS011;29079;41.930;25.558;2023-12-14T08:20:02;224.82;;;110.05;;
7108;SDS011;29079;41.930;25.558;2023-12-14T08:22:55;243.38;;;112.18;;
7108;SDS011;29079;41.930;25.558;2023-12-14T08:25:43;222.80;;;109.47;;
7108;SDS011;29079;41.930;25.558;2023-12-14T08:28:31;200.20;;;104.82;;
7108;SDS011;29079;41.930;25.558;2023-12-14T08:31:19;201.25;;;90.68;;
7108;SDS011;29079;41.930;25.558;2023-12-14T08:34:10;210.95;;;100.57;;
7108;SDS011;29079;41.930;25.558;2023-12-14T08:37:00;189.15;;;92.70;;
7108;SDS011;29079;41.930;25.558;2023-12-14T08:39:48;165.00;;;85.35;;
7108;SDS011;29079;41.930;25.558;2023-12-14T08:42:40;189.30;;;95.63;;
7108;SDS011;29079;41.930;25.558;2023-12-14T08:45:28;184.55;;;95.22;;
7108;SDS011;29079;41.930;25.558;2023-12-14T08:48:16;160.35;;;79.00;;
7108;SDS011;29079;41.930;25.558;2023-12-14T08:51:06;154.82;;;77.85;;
7108;SDS011;29079;41.930;25.558;2023-12-14T08:53:54;151.18;;;79.28;;
7108;SDS011;29079;41.930;25.558;2023-12-14T08:56:41;167.30;;;84.30;;
7108;SDS011;29079;41.930;25.558;2023-12-14T08:59:30;155.60;;;77.80;;
7108;SDS011;29079;41.930;25.558;2023-12-14T09:02:18;144.57;;;72.78;;
7108;SDS011;29079;41.930;25.558;2023-12-14T09:05:06;107.80;;;54.17;;
7108;SDS011;29079;41.930;25.558;2023-12-14T09:07:59;93.82;;;44.05;;
7108;SDS011;29079;41.930;25.558;2023-12-14T09:10:47;96.88;;;44.95;;
7108;SDS011;29079;41.930;25.558;2023-12-14T09:13:35;91.38;;;46.08;;
7108;SDS011;29079;41.930;25.558;2023-12-14T09:16:23;96.82;;;46.30;;
7108;SDS011;29079;41.930;25.558;2023-12-14T09:19:11;92.80;;;44.95;;
7108;SDS011;29079;41.930;25.558;2023-12-14T09:21:59;93.47;;;44.33;;
7108;SDS011;29079;41.930;25.558;2023-12-14T09:24:49;99.63;;;47.05;;
7108;SDS011;29079;41.930;25.558;2023-12-14T09:27:37;85.05;;;44.00;;
7108;SDS011;29079;41.930;25.558;2023-12-14T09:30:25;84.30;;;43.88;;
7108;SDS011;29079;41.930;25.558;2023-12-14T09:33:13;89.50;;;45.83;;
7108;SDS011;29079;41.930;25.558;2023-12-14T09:36:02;85.00;;;43.20;;
7108;SDS011;29079;41.930;25.558;2023-12-14T09:38:50;87.05;;;45.13;;
7108;SDS011;29079;41.930;25.558;2023-12-14T09:41:39;90.55;;;45.08;;
7108;SDS011;29079;41.930;25.558;2023-12-14T09:44:28;76.38;;;43.70;;
7108;SDS011;29079;41.930;25.558;2023-12-14T09:47:17;82.97;;;43.20;;
7108;SDS011;29079;41.930;25.558;2023-12-14T09:50:05;74.82;;;41.28;;
7108;SDS011;29079;41.930;25.558;2023-12-14T09:52:54;74.63;;;41.30;;
7108;SDS011;29079;41.930;25.558;2023-12-14T09:55:42;85.10;;;45.88;;
7108;SDS011;29079;41.930;25.558;2023-12-14T09:58:33;90.95;;;45.10;;
7108;SDS011;29079;41.930;25.558;2023-12-14T10:01:21;84.82;;;43.95;;
7108;SDS011;29079;41.930;25.558;2023-12-14T10:04:11;89.60;;;49.55;;
7108;SDS011;29079;41.930;25.558;2023-12-14T10:06:59;81.43;;;43.97;;
7108;SDS011;29079;41.930;25.558;2023-12-14T10:09:53;81.77;;;47.10;;
7108;SDS011;29079;41.930;25.558;2023-12-14T10:12:51;84.25;;;46.83;;
7108;SDS011;29079;41.930;25.558;2023-12-14T10:15:41;94.15;;;48.65;;
7108;SDS011;29079;41.930;25.558;2023-12-14T10:18:30;89.40;;;47.50;;
7108;SDS011;29079;41.930;25.558;2023-12-14T10:21:21;125.82;;;49.50;;
7108;SDS011;29079;41.930;25.558;2023-12-14T10:24:09;94.35;;;46.95;;
7108;SDS011;29079;41.930;25.558;2023-12-14T10:26:57;98.20;;;48.25;;
7108;SDS011;29079;41.930;25.558;2023-12-14T10:29:45;92.80;;;47.63;;
7108;SDS011;29079;41.930;25.558;2023-12-14T10:32:35;84.30;;;43.15;;
7108;SDS011;29079;41.930;25.558;2023-12-14T10:35:23;89.68;;;44.30;;
7108;SDS011;29079;41.930;25.558;2023-12-14T10:38:12;95.70;;;49.97;;
7108;SDS011;29079;41.930;25.558;2023-12-14T10:41:02;98.53;;;48.80;;
7108;SDS011;29079;41.930;25.558;2023-12-14T10:43:53;83.35;;;44.17;;
7108;SDS011;29079;41.930;25.558;2023-12-14T10:47:03;87.18;;;45.00;;
7108;SDS011;29079;41.930;25.558;2023-12-14T10:49:52;93.03;;;47.42;;
7108;SDS011;29079;41.930;25.558;2023-12-14T10:52:42;100.57;;;52.20;;
7108;SDS011;29079;41.930;25.558;2023-12-14T10:55:33;79.43;;;42.30;;
7108;SDS011;29079;41.930;25.558;2023-12-14T10:58:25;108.18;;;52.22;;
7108;SDS011;29079;41.930;25.558;2023-12-14T11:01:14;98.90;;;51.15;;
7108;SDS011;29079;41.930;25.558;2023-12-14T11:04:03;103.32;;;50.70;;
7108;SDS011;29079;41.930;25.558;2023-12-14T11:07:00;95.00;;;48.88;;
7108;SDS011;29079;41.930;25.558;2023-12-14T11:09:49;109.75;;;57.65;;
7108;SDS011;29079;41.930;25.558;2023-12-14T11:12:37;110.05;;;54.13;;
7108;SDS011;29079;41.930;25.558;2023-12-14T11:15:25;120.90;;;57.30;;
7108;SDS011;29079;41.930;25.558;2023-12-14T11:18:24;100.70;;;54.28;;
7108;SDS011;29079;41.930;25.558;2023-12-14T11:21:17;87.60;;;50.13;;
7108;SDS011;29079;41.930;25.558;2023-12-14T11:24:08;104.25;;;51.25;;
7108;SDS011;29079;41.930;25.558;2023-12-14T11:26:57;80.55;;;45.75;;
7108;SDS011;29079;41.930;25.558;2023-12-14T11:29:45;98.13;;;49.42;;
7108;SDS011;29079;41.930;25.558;2023-12-14T11:32:36;87.90;;;46.75;;
7108;SDS011;29079;41.930;25.558;2023-12-14T11:35:24;95.65;;;45.47;;
7108;SDS011;29079;41.930;25.558;2023-12-14T11:38:12;87.68;;;45.75;;
7108;SDS011;29079;41.930;25.558;2023-12-14T11:41:02;83.05;;;47.17;;
7108;SDS011;29079;41.930;25.558;2023-12-14T11:43:51;83.15;;;44.33;;
7108;SDS011;29079;41.930;25.558;2023-12-14T11:46:39;99.43;;;49.20;;
7108;SDS011;29079;41.930;25.558;2023-12-14T11:49:28;82.28;;;42.53;;
7108;SDS011;29079;41.930;25.558;2023-12-14T11:52:18;79.97;;;42.85;;
7108;SDS011;29079;41.930;25.558;2023-12-14T11:55:06;85.80;;;45.40;;
7108;SDS011;29079;41.930;25.558;2023-12-14T11:57:58;93.05;;;46.90;;
7108;SDS011;29079;41.930;25.558;2023-12-14T12:00:47;81.50;;;44.80;;
7108;SDS011;29079;41.930;25.558;2023-12-14T12:03:35;84.95;;;41.15;;
7108;SDS011;29079;41.930;25.558;2023-12-14T12:06:24;91.78;;;45.50;;
7108;SDS011;29079;41.930;25.558;2023-12-14T12:09:14;91.43;;;48.15;;
7108;SDS011;29079;41.930;25.558;2023-12-14T12:12:20;79.47;;;42.95;;
7108;SDS011;29079;41.930;25.558;2023-12-14T12:15:10;94.00;;;46.83;;
7108;SDS011;29079;41.930;25.558;2023-12-14T12:17:59;89.13;;;47.10;;
7108;SDS011;29079;41.930;25.558;2023-12-14T12:20:47;92.13;;;47.30;;
7108;SDS011;29079;41.930;25.558;2023-12-14T12:23:35;107.25;;;48.05;;
7108;SDS011;29079;41.930;25.558;2023-12-14T12:26:23;91.13;;;48.10;;
7108;SDS011;29079;41.930;25.558;2023-12-14T12:29:11;85.15;;;46.85;;
7108;SDS011;29079;41.930;25.558;2023-12-14T12:32:01;92.88;;;50.00;;
7108;SDS011;29079;41.930;25.558;2023-12-14T12:34:49;95.90;;;48.40;;
7108;SDS011;29079;41.930;25.558;2023-12-14T12:37:38;99.68;;;50.42;;
7108;SDS011;29079;41.930;25.558;2023-12-14T12:40:27;93.63;;;50.97;;
7108;SDS011;29079;41.930;25.558;2023-12-14T12:43:17;81.90;;;44.70;;
7108;SDS011;29079;41.930;25.558;2023-12-14T12:46:05;88.13;;;48.08;;
7108;SDS011;29079;41.930;25.558;2023-12-14T12:48:55;88.57;;;46.58;;
7108;SDS011;29079;41.930;25.558;2023-12-14T12:51:43;90.28;;;48.90;;
7108;SDS011;29079;41.930;25.558;2023-12-14T12:54:31;91.20;;;49.40;;
7108;SDS011;29079;41.930;25.558;2023-12-14T12:57:19;100.18;;;47.70;;
7108;SDS011;29079;41.930;25.558;2023-12-14T13:00:08;89.13;;;47.08;;
7108;SDS011;29079;41.930;25.558;2023-12-14T13:02:58;96.45;;;48.08;;
7108;SDS011;29079;41.930;25.558;2023-12-14T13:05:48;76.22;;;41.30;;
7108;SDS011;29079;41.930;25.558;2023-12-14T13:08:36;75.00;;;41.55;;
7108;SDS011;29079;41.930;25.558;2023-12-14T13:11:25;77.18;;;40.75;;
7108;SDS011;29079;41.930;25.558;2023-12-14T13:14:13;78.90;;;42.85;;
7108;SDS011;29079;41.930;25.558;2023-12-14T13:17:01;93.05;;;47.42;;
7108;SDS011;29079;41.930;25.558;2023-12-14T13:19:50;93.90;;;48.30;;
7108;SDS011;29079;41.930;25.558;2023-12-14T13:22:40;87.53;;;43.75;;
7108;SDS011;29079;41.930;25.558;2023-12-14T13:25:28;82.03;;;43.58;;
7108;SDS011;29079;41.930;25.558;2023-12-14T13:28:16;84.28;;;42.42;;
7108;SDS011;29079;41.930;25.558;2023-12-14T13:31:04;79.60;;;42.20;;
7108;SDS011;29079;41.930;25.558;2023-12-14T13:33:52;83.32;;;43.63;;
7108;SDS011;29079;41.930;25.558;2023-12-14T13:36:40;84.28;;;42.50;;
7108;SDS011;29079;41.930;25.558;2023-12-14T13:39:30;83.15;;;42.40;;
7108;SDS011;29079;41.930;25.558;2023-12-14T13:42:20;83.05;;;41.22;;
7108;SDS011;29079;41.930;25.558;2023-12-14T13:45:08;77.65;;;41.22;;
7108;SDS011;29079;41.930;25.558;2023-12-14T13:47:56;80.40;;;40.40;;
7108;SDS011;29079;41.930;25.558;2023-12-14T13:50:46;77.28;;;40.42;;
7108;SDS011;29079;41.930;25.558;2023-12-14T13:53:34;80.80;;;41.38;;
7108;SDS011;29079;41.930;25.558;2023-12-14T13:56:24;76.60;;;39.45;;
7108;SDS011;29079;41.930;25.558;2023-12-14T13:59:12;79.25;;;42.90;;
7108;SDS011;29079;41.930;25.558;2023-12-14T14:02:00;87.43;;;43.38;;
7108;SDS011;29079;41.930;25.558;2023-12-14T14:04:48;74.20;;;39.92;;
7108;SDS011;29079;41.930;25.558;2023-12-14T14:07:38;76.22;;;39.05;;
7108;SDS011;29079;41.930;25.558;2023-12-14T14:10:26;77.07;;;39.28;;
7108;SDS011;29079;41.930;25.558;2023-12-14T14:13:16;75.78;;;41.55;;
7108;SDS011;29079;41.930;25.558;2023-12-14T14:16:04;78.63;;;41.63;;
7108;SDS011;29079;41.930;25.558;2023-12-14T14:18:54;83.45;;;44.03;;
7108;SDS011;29079;41.930;25.558;2023-12-14T14:21:42;87.07;;;44.85;;
7108;SDS011;29079;41.930;25.558;2023-12-14T14:24:30;92.30;;;46.55;;
7108;SDS011;29079;41.930;25.558;2023-12-14T14:27:18;83.70;;;43.05;;
7108;SDS011;29079;41.930;25.558;2023-12-14T14:30:08;82.55;;;43.85;;
7108;SDS011;29079;41.930;25.558;2023-12-14T14:32:57;95.47;;;46.67;;
7108;SDS011;29079;41.930;25.558;2023-12-14T14:35:45;80.20;;;40.30;;
7108;SDS011;29079;41.930;25.558;2023-12-14T14:38:34;62.38;;;33.75;;
7108;SDS011;29079;41.930;25.558;2023-12-14T14:41:22;80.70;;;41.50;;
7108;SDS011;29079;41.930;25.558;2023-12-14T14:44:10;88.03;;;48.10;;
7108;SDS011;29079;41.930;25.558;2023-12-14T14:46:59;92.55;;;48.58;;
7108;SDS011;29079;41.930;25.558;2023-12-14T14:49:48;88.18;;;49.70;;
7108;SDS011;29079;41.930;25.558;2023-12-14T14:52:37;97.70;;;52.95;;
7108;SDS011;29079;41.930;25.558;2023-12-14T14:55:25;104.78;;;53.53;;
7108;SDS011;29079;41.930;25.558;2023-12-14T14:58:13;75.30;;;40.78;;
7108;SDS011;29079;41.930;25.558;2023-12-14T15:01:01;103.30;;;51.42;;
7108;SDS011;29079;41.930;25.558;2023-12-14T15:03:51;89.95;;;50.65;;
7108;SDS011;29079;41.930;25.558;2023-12-14T15:06:39;113.20;;;52.45;;
7108;SDS011;29079;41.930;25.558;2023-12-14T15:09:28;97.70;;;53.38;;
7108;SDS011;29079;41.930;25.558;2023-12-14T15:12:16;99.95;;;51.38;;
7108;SDS011;29079;41.930;25.558;2023-12-14T15:15:04;104.35;;;53.15;;
7108;SDS011;29079;41.930;25.558;2023-12-14T15:17:55;90.15;;;44.60;;
7108;SDS011;29079;41.930;25.558;2023-12-14T15:20:44;99.13;;;52.05;;
7108;SDS011;29079;41.930;25.558;2023-12-14T15:23:35;99.22;;;52.67;;
7108;SDS011;29079;41.930;25.558;2023-12-14T15:26:22;95.38;;;53.22;;
7108;SDS011;29079;41.930;25.558;2023-12-14T15:29:11;104.97;;;56.22;;
7108;SDS011;29079;41.930;25.558;2023-12-14T15:31:59;117.38;;;57.83;;
7108;SDS011;29079;41.930;25.558;2023-12-14T15:34:47;113.10;;;59.25;;
7108;SDS011;29079;41.930;25.558;2023-12-14T15:37:37;116.30;;;62.20;;
7108;SDS011;29079;41.930;25.558;2023-12-14T15:40:25;118.22;;;62.58;;
7108;SDS011;29079;41.930;25.558;2023-12-14T15:43:14;110.97;;;60.75;;
7108;SDS011;29079;41.930;25.558;2023-12-14T15:46:01;129.18;;;62.40;;
7108;SDS011;29079;41.930;25.558;2023-12-14T15:48:50;123.28;;;62.20;;
7108;SDS011;29079;41.930;25.558;2023-12-14T15:51:38;116.97;;;65.95;;
7108;SDS011;29079;41.930;25.558;2023-12-14T15:54:28;127.60;;;61.88;;
7108;SDS011;29079;41.930;25.558;2023-12-14T15:57:16;153.73;;;77.38;;
7108;SDS011;29079;41.930;25.558;2023-12-14T16:00:05;157.27;;;79.07;;
7108;SDS011;29079;41.930;25.558;2023-12-14T16:02:54;131.68;;;71.75;;
7108;SDS011;29079;41.930;25.558;2023-12-14T16:05:42;136.18;;;73.07;;
7108;SDS011;29079;41.930;25.558;2023-12-14T16:08:31;146.18;;;74.68;;
7108;SDS011;29079;41.930;25.558;2023-12-14T16:11:20;129.57;;;67.95;;
7108;SDS011;29079;41.930;25.558;2023-12-14T16:14:08;128.95;;;65.32;;
7108;SDS011;29079;41.930;25.558;2023-12-14T16:16:56;114.78;;;60.00;;
7108;SDS011;29079;41.930;25.558;2023-12-14T16:19:44;114.13;;;56.58;;
7108;SDS011;29079;41.930;25.558;2023-12-14T16:22:34;117.03;;;58.22;;
7108;SDS011;29079;41.930;25.558;2023-12-14T16:25:23;119.15;;;62.38;;